sensor_id;sensor_type;location;lat;lon;timestamp;pressure;altitude;pressure_sealevel;temperature;humidity
59190;BME280;50749;51.636;4.948;2022-10-16T00:01:58;101036.75;;;18.51;62.13
59190;BME280;50749;51.636;4.948;2022-10-16T00:04:24;101033.16;;;18.50;62.23
59190;BME280;50749;51.636;4.948;2022-10-16T00:06:49;101039.03;;;18.49;62.16
59190;BME280;50749;51.636;4.948;2022-10-16T00:09:15;101039.41;;;18.47;62.61
59190;BME280;50749;51.636;4.948;2022-10-16T00:11:41;101029.50;;;18.46;62.18
59190;BME280;50749;51.636;4.948;2022-10-16T00:14:11;101031.44;;;18.46;62.33
59190;BME280;50749;51.636;4.948;2022-10-16T00:16:37;101022.69;;;18.44;62.40
59190;BME280;50749;51.636;4.948;2022-10-16T00:19:04;101022.69;;;18.44;62.29
59190;BME280;50749;51.636;4.948;2022-10-16T00:21:31;101029.06;;;18.44;62.34
59190;BME280;50749;51.636;4.948;2022-10-16T00:24:00;101027.09;;;18.45;62.39
59190;BME280;50749;51.636;4.948;2022-10-16T00:26:28;101016.38;;;18.43;62.11
59190;BME280;50749;51.636;4.948;2022-10-16T00:28:54;101015.09;;;18.41;62.64
59190;BME280;50749;51.636;4.948;2022-10-16T00:31:22;101017.09;;;18.40;62.44
59190;BME280;50749;51.636;4.948;2022-10-16T00:33:49;101022.63;;;18.40;62.36
59190;BME280;50749;51.636;4.948;2022-10-16T00:36:18;101021.00;;;18.39;62.24
59190;BME280;50749;51.636;4.948;2022-10-16T00:38:45;101020.19;;;18.38;62.01
59190;BME280;50749;51.636;4.948;2022-10-16T00:41:14;101019.41;;;18.38;61.95
59190;BME280;50749;51.636;4.948;2022-10-16T00:43:45;101025.31;;;18.36;62.41
59190;BME280;50749;51.636;4.948;2022-10-16T00:51:18;101039.06;;;18.33;62.67
59190;BME280;50749;51.636;4.948;2022-10-16T00:53:46;101058.78;;;18.31;62.62
59190;BME280;50749;51.636;4.948;2022-10-16T00:56:11;101059.56;;;18.32;62.52
59190;BME280;50749;51.636;4.948;2022-10-16T00:58:37;101060.38;;;18.32;62.52
59190;BME280;50749;51.636;4.948;2022-10-16T01:01:03;101051.63;;;18.30;62.63
59190;BME280;50749;51.636;4.948;2022-10-16T01:03:32;101049.22;;;18.29;62.53
59190;BME280;50749;51.636;4.948;2022-10-16T01:06:09;101045.19;;;18.26;62.42
59190;BME280;50749;51.636;4.948;2022-10-16T01:11:41;101038.03;;;18.25;62.64
59190;BME280;50749;51.636;4.948;2022-10-16T01:14:26;101042.78;;;18.25;62.75
59190;BME280;50749;51.636;4.948;2022-10-16T01:17:45;101034.84;;;18.23;62.75
59190;BME280;50749;51.636;4.948;2022-10-16T01:20:04;101029.66;;;18.22;62.59
59190;BME280;50749;51.636;4.948;2022-10-16T01:26:12;101029.22;;;18.19;62.67
59190;BME280;50749;51.636;4.948;2022-10-16T01:28:52;101026.09;;;18.21;62.72
59190;BME280;50749;51.636;4.948;2022-10-16T01:31:24;101028.03;;;18.20;62.33
59190;BME280;50749;51.636;4.948;2022-10-16T01:34:02;101030.00;;;18.20;62.42
59190;BME280;50749;51.636;4.948;2022-10-16T01:36:36;101034.75;;;18.19;62.32
59190;BME280;50749;51.636;4.948;2022-10-16T01:39:03;101034.75;;;18.19;62.89
59190;BME280;50749;51.636;4.948;2022-10-16T01:41:42;101030.00;;;18.20;62.52
59190;BME280;50749;51.636;4.948;2022-10-16T01:44:25;101018.94;;;18.20;62.57
59190;BME280;50749;51.636;4.948;2022-10-16T01:46:54;101016.19;;;18.20;62.46
59190;BME280;50749;51.636;4.948;2022-10-16T01:49:21;101013.75;;;18.18;62.80
59190;BME280;50749;51.636;4.948;2022-10-16T01:51:52;101027.94;;;18.17;62.75
59190;BME280;50749;51.636;4.948;2022-10-16T01:54:20;101033.13;;;18.18;62.87
59190;BME280;50749;51.636;4.948;2022-10-16T01:56:50;101035.09;;;18.18;62.53
59190;BME280;50749;51.636;4.948;2022-10-16T01:59:19;101028.31;;;18.15;62.61
59190;BME280;50749;51.636;4.948;2022-10-16T02:01:52;101042.59;;;18.17;62.58
59190;BME280;50749;51.636;4.948;2022-10-16T02:04:54;101041.00;;;18.16;62.51
59190;BME280;50749;51.636;4.948;2022-10-16T02:07:20;101047.66;;;18.15;62.81
59190;BME280;50749;51.636;4.948;2022-10-16T02:09:46;101054.03;;;18.16;62.52
59190;BME280;50749;51.636;4.948;2022-10-16T02:14:38;101036.59;;;18.15;62.35
59190;BME280;50749;51.636;4.948;2022-10-16T02:17:14;101031.91;;;18.16;62.64
59190;BME280;50749;51.636;4.948;2022-10-16T02:19:41;101038.56;;;18.15;62.58
59190;BME280;50749;51.636;4.948;2022-10-16T02:22:10;101044.91;;;18.15;62.38
59190;BME280;50749;51.636;4.948;2022-10-16T02:32:48;101037.78;;;18.14;62.25
59190;BME280;50749;51.636;4.948;2022-10-16T02:35:19;101041.69;;;18.13;62.67
59190;BME280;50749;51.636;4.948;2022-10-16T02:37:47;101055.53;;;18.13;62.27
59190;BME280;50749;51.636;4.948;2022-10-16T02:40:13;101050.78;;;18.14;62.79
59190;BME280;50749;51.636;4.948;2022-10-16T02:42:40;101042.88;;;18.12;62.47
59190;BME280;50749;51.636;4.948;2022-10-16T02:45:08;101043.66;;;18.13;62.23
59190;BME280;50749;51.636;4.948;2022-10-16T02:47:34;101042.88;;;18.12;62.21
59190;BME280;50749;51.636;4.948;2022-10-16T02:50:00;101038.47;;;18.11;62.38
59190;BME280;50749;51.636;4.948;2022-10-16T02:52:26;101035.72;;;18.11;62.13
59190;BME280;50749;51.636;4.948;2022-10-16T02:54:52;101025.00;;;18.10;62.51
59190;BME280;50749;51.636;4.948;2022-10-16T02:57:18;101025.78;;;18.10;62.23
59190;BME280;50749;51.636;4.948;2022-10-16T02:59:44;101031.34;;;18.10;62.27
59190;BME280;50749;51.636;4.948;2022-10-16T03:02:10;101037.22;;;18.09;62.09
59190;BME280;50749;51.636;4.948;2022-10-16T03:04:36;101036.41;;;18.08;62.28
59190;BME280;50749;51.636;4.948;2022-10-16T03:07:03;101044.72;;;18.08;62.37
59190;BME280;50749;51.636;4.948;2022-10-16T03:09:28;101040.81;;;18.09;62.74
59190;BME280;50749;51.636;4.948;2022-10-16T03:11:54;101041.59;;;18.10;62.53
59190;BME280;50749;51.636;4.948;2022-10-16T03:14:20;101048.75;;;18.11;62.02
59190;BME280;50749;51.636;4.948;2022-10-16T03:16:46;101053.47;;;18.10;62.62
59190;BME280;50749;51.636;4.948;2022-10-16T03:19:11;101060.16;;;18.09;62.28
59190;BME280;50749;51.636;4.948;2022-10-16T03:21:37;101056.59;;;18.09;62.63
59190;BME280;50749;51.636;4.948;2022-10-16T03:24:03;101066.50;;;18.10;62.05
59190;BME280;50749;51.636;4.948;2022-10-16T03:26:29;101069.28;;;18.10;61.97
59190;BME280;50749;51.636;4.948;2022-10-16T03:28:55;101071.25;;;18.09;62.43
59190;BME280;50749;51.636;4.948;2022-10-16T03:31:21;101077.56;;;18.10;62.21
59190;BME280;50749;51.636;4.948;2022-10-16T03:33:47;101069.63;;;18.08;62.24
59190;BME280;50749;51.636;4.948;2022-10-16T03:36:13;101066.84;;;18.08;62.56
59190;BME280;50749;51.636;4.948;2022-10-16T03:38:38;101061.31;;;18.08;61.91
59190;BME280;50749;51.636;4.948;2022-10-16T03:41:04;101069.63;;;18.08;62.13
59190;BME280;50749;51.636;4.948;2022-10-16T03:43:30;101084.25;;;18.09;62.30
59190;BME280;50749;51.636;4.948;2022-10-16T03:45:56;101085.88;;;18.10;62.08
59190;BME280;50749;51.636;4.948;2022-10-16T03:48:21;101085.06;;;18.09;62.08
59190;BME280;50749;51.636;4.948;2022-10-16T03:50:47;101083.44;;;18.08;62.08
59190;BME280;50749;51.636;4.948;2022-10-16T03:53:14;101079.53;;;18.09;61.99
59190;BME280;50749;51.636;4.948;2022-10-16T03:55:44;101094.50;;;18.08;62.07
59190;BME280;50749;51.636;4.948;2022-10-16T03:58:10;101096.94;;;18.10;62.21
59190;BME280;50749;51.636;4.948;2022-10-16T04:00:41;101079.53;;;18.09;61.74
59190;BME280;50749;51.636;4.948;2022-10-16T04:03:07;101089.78;;;18.09;62.16
59190;BME280;50749;51.636;4.948;2022-10-16T04:05:33;101088.19;;;18.08;61.93
59190;BME280;50749;51.636;4.948;2022-10-16T04:07:59;101092.94;;;18.07;61.99
59190;BME280;50749;51.636;4.948;2022-10-16T04:10:25;101097.97;;;18.05;61.90
59190;BME280;50749;51.636;4.948;2022-10-16T04:12:51;101103.53;;;18.05;62.07
59190;BME280;50749;51.636;4.948;2022-10-16T04:15:16;101102.38;;;18.06;61.91
59190;BME280;50749;51.636;4.948;2022-10-16T04:17:42;101102.38;;;18.06;61.82
59190;BME280;50749;51.636;4.948;2022-10-16T04:20:08;101096.03;;;18.06;61.85
59190;BME280;50749;51.636;4.948;2022-10-16T04:22:34;101107.91;;;18.06;61.75
59190;BME280;50749;51.636;4.948;2022-10-16T04:25:00;101107.13;;;18.06;62.18
59190;BME280;50749;51.636;4.948;2022-10-16T04:27:26;101109.53;;;18.07;61.94
59190;BME280;50749;51.636;4.948;2022-10-16T04:29:52;101111.47;;;18.07;61.80
59190;BME280;50749;51.636;4.948;2022-10-16T04:32:17;101109.88;;;18.06;62.04
59190;BME280;50749;51.636;4.948;2022-10-16T04:34:43;101114.59;;;18.05;61.79
59190;BME280;50749;51.636;4.948;2022-10-16T04:37:09;101114.94;;;18.04;62.02
59190;BME280;50749;51.636;4.948;2022-10-16T04:39:34;101128.41;;;18.05;61.92
59190;BME280;50749;51.636;4.948;2022-10-16T04:42:00;101120.81;;;18.02;62.00
59190;BME280;50749;51.636;4.948;2022-10-16T04:44:26;101128.31;;;18.01;61.71
59190;BME280;50749;51.636;4.948;2022-10-16T04:46:51;101125.56;;;18.01;61.98
59190;BME280;50749;51.636;4.948;2022-10-16T04:49:17;101139.03;;;18.03;61.71
59190;BME280;50749;51.636;4.948;2022-10-16T04:51:43;101140.19;;;18.02;61.86
59190;BME280;50749;51.636;4.948;2022-10-16T04:54:09;101137.41;;;18.02;61.95
59190;BME280;50749;51.636;4.948;2022-10-16T04:56:35;101137.41;;;18.02;61.91
59190;BME280;50749;51.636;4.948;2022-10-16T04:59:09;101143.78;;;18.03;61.73
59190;BME280;50749;51.636;4.948;2022-10-16T05:01:35;101145.72;;;18.02;61.98
59190;BME280;50749;51.636;4.948;2022-10-16T05:04:00;101153.22;;;18.01;61.96
59190;BME280;50749;51.636;4.948;2022-10-16T05:06:26;101148.47;;;18.02;61.68
59190;BME280;50749;51.636;4.948;2022-10-16T05:08:52;101150.44;;;18.01;61.63
59190;BME280;50749;51.636;4.948;2022-10-16T05:11:18;101161.50;;;18.01;61.75
59190;BME280;50749;51.636;4.948;2022-10-16T05:13:44;101168.22;;;18.00;61.99
59190;BME280;50749;51.636;4.948;2022-10-16T05:16:09;101165.47;;;18.00;61.74
59190;BME280;50749;51.636;4.948;2022-10-16T05:18:35;101185.63;;;18.01;61.77
59190;BME280;50749;51.636;4.948;2022-10-16T05:21:01;101185.97;;;17.99;61.77
59190;BME280;50749;51.636;4.948;2022-10-16T05:23:27;101182.75;;;17.97;62.13
59190;BME280;50749;51.636;4.948;2022-10-16T05:25:56;101194.59;;;17.98;61.80
59190;BME280;50749;51.636;4.948;2022-10-16T05:28:28;101198.16;;;17.98;61.86
59190;BME280;50749;51.636;4.948;2022-10-16T05:30:54;101193.00;;;17.97;61.75
59190;BME280;50749;51.636;4.948;2022-10-16T05:33:21;101189.06;;;17.98;61.69
59190;BME280;50749;51.636;4.948;2022-10-16T05:35:47;101189.78;;;17.95;61.88
59190;BME280;50749;51.636;4.948;2022-10-16T05:38:13;101198.06;;;17.95;61.60
59190;BME280;50749;51.636;4.948;2022-10-16T05:40:39;101201.63;;;17.95;61.72
59190;BME280;50749;51.636;4.948;2022-10-16T05:43:05;101214.31;;;17.96;61.96
59190;BME280;50749;51.636;4.948;2022-10-16T05:45:30;101209.47;;;17.93;61.88
59190;BME280;50749;51.636;4.948;2022-10-16T05:47:56;101203.16;;;17.93;62.19
59190;BME280;50749;51.636;4.948;2022-10-16T05:50:22;101218.59;;;17.94;61.90
59190;BME280;50749;51.636;4.948;2022-10-16T05:52:48;101215.84;;;17.94;62.06
59190;BME280;50749;51.636;4.948;2022-10-16T05:55:13;101217.78;;;17.93;61.67
59190;BME280;50749;51.636;4.948;2022-10-16T05:57:39;101221.38;;;17.94;61.86
59190;BME280;50749;51.636;4.948;2022-10-16T06:00:06;101226.91;;;17.94;61.85
59190;BME280;50749;51.636;4.948;2022-10-16T06:02:32;101226.06;;;17.93;62.12
59190;BME280;50749;51.636;4.948;2022-10-16T06:04:57;101230.81;;;17.93;62.12
59190;BME280;50749;51.636;4.948;2022-10-16T06:07:23;101237.97;;;17.94;61.88
59190;BME280;50749;51.636;4.948;2022-10-16T06:09:50;101237.97;;;17.94;61.61
59190;BME280;50749;51.636;4.948;2022-10-16T06:12:17;101246.25;;;17.94;61.86
59190;BME280;50749;51.636;4.948;2022-10-16T06:14:42;101250.19;;;17.93;61.94
59190;BME280;50749;51.636;4.948;2022-10-16T06:17:08;101251.78;;;17.94;61.89
59190;BME280;50749;51.636;4.948;2022-10-16T06:19:34;101252.94;;;17.93;61.77
59190;BME280;50749;51.636;4.948;2022-10-16T06:22:00;101260.09;;;17.94;61.97
59190;BME280;50749;51.636;4.948;2022-10-16T06:24:25;101258.91;;;17.95;62.11
59190;BME280;50749;51.636;4.948;2022-10-16T06:26:51;101260.91;;;17.94;61.75
59190;BME280;50749;51.636;4.948;2022-10-16T06:29:17;101268.41;;;17.94;61.56
59190;BME280;50749;51.636;4.948;2022-10-16T06:31:43;101276.69;;;17.94;61.49
59190;BME280;50749;51.636;4.948;2022-10-16T06:34:09;101270.34;;;17.93;61.77
59190;BME280;50749;51.636;4.948;2022-10-16T06:36:36;101286.94;;;17.93;61.50
59190;BME280;50749;51.636;4.948;2022-10-16T06:39:02;101276.69;;;17.94;61.77
59190;BME280;50749;51.636;4.948;2022-10-16T06:41:29;101291.66;;;17.93;61.57
59190;BME280;50749;51.636;4.948;2022-10-16T06:43:54;101280.59;;;17.93;61.77
59190;BME280;50749;51.636;4.948;2022-10-16T06:46:23;101292.47;;;17.93;62.00
59190;BME280;50749;51.636;4.948;2022-10-16T06:48:49;101299.97;;;17.93;61.98
59190;BME280;50749;51.636;4.948;2022-10-16T06:51:18;101306.63;;;17.92;61.93
59190;BME280;50749;51.636;4.948;2022-10-16T06:53:50;101315.41;;;17.94;61.69
59190;BME280;50749;51.636;4.948;2022-10-16T06:56:19;101311.38;;;17.91;62.16
59190;BME280;50749;51.636;4.948;2022-10-16T06:58:46;101320.00;;;17.90;62.28
59190;BME280;50749;51.636;4.948;2022-10-16T07:01:13;101321.19;;;17.89;62.28
59190;BME280;50749;51.636;4.948;2022-10-16T07:03:40;101328.31;;;17.90;62.18
59190;BME280;50749;51.636;4.948;2022-10-16T07:06:08;101335.81;;;17.89;62.04
59190;BME280;50749;51.636;4.948;2022-10-16T07:08:36;101338.22;;;17.91;62.37
59190;BME280;50749;51.636;4.948;2022-10-16T07:11:04;101345.38;;;17.92;62.41
59190;BME280;50749;51.636;4.948;2022-10-16T07:13:33;101344.56;;;17.91;62.58
59190;BME280;50749;51.636;4.948;2022-10-16T07:16:16;101355.63;;;17.91;62.40
59190;BME280;50749;51.636;4.948;2022-10-16T07:18:43;101356.44;;;17.92;62.54
59190;BME280;50749;51.636;4.948;2022-10-16T07:21:21;101363.59;;;17.93;62.60
59190;BME280;50749;51.636;4.948;2022-10-16T07:23:54;101365.22;;;17.94;62.62
59190;BME280;50749;51.636;4.948;2022-10-16T07:26:22;101361.28;;;17.95;62.81
59190;BME280;50749;51.636;4.948;2022-10-16T07:28:48;101365.31;;;17.97;62.93
59190;BME280;50749;51.636;4.948;2022-10-16T07:31:15;101373.28;;;17.99;63.20
59190;BME280;50749;51.636;4.948;2022-10-16T07:33:43;101380.06;;;18.01;63.29
59190;BME280;50749;51.636;4.948;2022-10-16T07:36:11;101386.88;;;18.04;63.31
59190;BME280;50749;51.636;4.948;2022-10-16T07:38:37;101382.94;;;18.05;62.99
59190;BME280;50749;51.636;4.948;2022-10-16T07:41:06;101378.69;;;18.08;63.20
59190;BME280;50749;51.636;4.948;2022-10-16T07:43:32;101379.13;;;18.10;63.07
59190;BME280;50749;51.636;4.948;2022-10-16T07:45:59;101391.50;;;18.12;63.12
59190;BME280;50749;51.636;4.948;2022-10-16T07:48:30;101398.28;;;18.15;63.03
59190;BME280;50749;51.636;4.948;2022-10-16T07:51:01;101410.97;;;18.16;63.12
59190;BME280;50749;51.636;4.948;2022-10-16T07:53:27;101414.53;;;18.16;62.90
59190;BME280;50749;51.636;4.948;2022-10-16T07:56:01;101420.53;;;18.18;62.95
59190;BME280;50749;51.636;4.948;2022-10-16T07:58:28;101424.91;;;18.19;63.20
59190;BME280;50749;51.636;4.948;2022-10-16T08:00:55;101425.38;;;18.22;62.71
59190;BME280;50749;51.636;4.948;2022-10-16T08:03:20;101431.03;;;18.25;62.80
59190;BME280;50749;51.636;4.948;2022-10-16T08:05:46;101440.59;;;18.28;62.69
59190;BME280;50749;51.636;4.948;2022-10-16T08:08:14;101445.47;;;18.31;62.61
59190;BME280;50749;51.636;4.948;2022-10-16T08:10:40;101443.38;;;18.40;62.16
59190;BME280;50749;51.636;4.948;2022-10-16T08:13:06;101449.38;;;18.54;62.20
59190;BME280;50749;51.636;4.948;2022-10-16T08:15:32;101448.75;;;18.73;61.62
59190;BME280;50749;51.636;4.948;2022-10-16T08:18:00;101456.03;;;18.90;60.82
59190;BME280;50749;51.636;4.948;2022-10-16T08:20:27;101462.25;;;19.00;60.34
59190;BME280;50749;51.636;4.948;2022-10-16T08:22:53;101467.53;;;19.05;60.56
59190;BME280;50749;51.636;4.948;2022-10-16T08:25:21;101470.75;;;19.07;60.26
59190;BME280;50749;51.636;4.948;2022-10-16T08:27:47;101470.75;;;19.07;60.39
59190;BME280;50749;51.636;4.948;2022-10-16T08:30:13;101471.00;;;19.02;60.21
59190;BME280;50749;51.636;4.948;2022-10-16T08:32:39;101476.09;;;19.00;60.58
59190;BME280;50749;51.636;4.948;2022-10-16T08:35:08;101478.41;;;18.98;60.62
59190;BME280;50749;51.636;4.948;2022-10-16T08:37:34;101475.88;;;18.92;60.79
59190;BME280;50749;51.636;4.948;2022-10-16T08:40:00;101486.03;;;18.88;61.01
59190;BME280;50749;51.636;4.948;2022-10-16T08:45:43;101483.63;;;18.87;61.22
59190;BME280;50749;51.636;4.948;2022-10-16T08:48:17;101495.50;;;18.87;61.10
59190;BME280;50749;51.636;4.948;2022-10-16T08:50:47;101492.38;;;18.89;61.11
59190;BME280;50749;51.636;4.948;2022-10-16T08:53:36;101491.25;;;18.90;61.49
59190;BME280;50749;51.636;4.948;2022-10-16T08:56:04;101497.56;;;18.90;61.36
59190;BME280;50749;51.636;4.948;2022-10-16T08:58:31;101492.84;;;18.91;61.00
59190;BME280;50749;51.636;4.948;2022-10-16T09:01:01;101507.50;;;18.91;61.02
59190;BME280;50749;51.636;4.948;2022-10-16T09:16:55;101507.03;;;19.02;60.72
59190;BME280;50749;51.636;4.948;2022-10-16T09:19:31;101512.22;;;19.03;60.89
59190;BME280;50749;51.636;4.948;2022-10-16T09:22:04;101519.84;;;19.06;60.70
59190;BME280;50749;51.636;4.948;2022-10-16T09:24:36;101511.16;;;19.08;60.83
59190;BME280;50749;51.636;4.948;2022-10-16T09:27:02;101518.31;;;19.09;61.46
59190;BME280;50749;51.636;4.948;2022-10-16T09:29:28;101509.31;;;19.12;61.26
59190;BME280;50749;51.636;4.948;2022-10-16T09:31:55;101520.59;;;19.19;61.07
59190;BME280;50749;51.636;4.948;2022-10-16T09:36:49;101518.75;;;19.23;60.65
59190;BME280;50749;51.636;4.948;2022-10-16T09:39:15;101522.22;;;19.20;61.22
59190;BME280;50749;51.636;4.948;2022-10-16T09:41:43;101524.66;;;19.22;60.91
59190;BME280;50749;51.636;4.948;2022-10-16T09:44:23;101527.88;;;19.24;60.68
59190;BME280;50749;51.636;4.948;2022-10-16T09:47:04;101534.66;;;19.26;60.95
59190;BME280;50749;51.636;4.948;2022-10-16T09:49:30;101539.66;;;19.21;60.54
59190;BME280;50749;51.636;4.948;2022-10-16T09:52:12;101530.44;;;19.17;59.64
59190;BME280;50749;51.636;4.948;2022-10-16T09:54:49;101542.56;;;19.12;59.11
59190;BME280;50749;51.636;4.948;2022-10-16T09:57:15;101535.66;;;19.06;59.99
59190;BME280;50749;51.636;4.948;2022-10-16T10:00:10;101534.03;;;19.05;60.91
59190;BME280;50749;51.636;4.948;2022-10-16T10:02:36;101551.03;;;19.03;60.52
59190;BME280;50749;51.636;4.948;2022-10-16T10:05:05;101540.28;;;19.02;59.52
59190;BME280;50749;51.636;4.948;2022-10-16T10:07:42;101539.34;;;18.98;59.73
59190;BME280;50749;51.636;4.948;2022-10-16T10:10:24;101537.66;;;18.93;59.52
59190;BME280;50749;51.636;4.948;2022-10-16T10:12:51;101542.34;;;18.92;60.32
59190;BME280;50749;51.636;4.948;2022-10-16T10:15:17;101547.22;;;18.96;60.41
59190;BME280;50749;51.636;4.948;2022-10-16T10:17:57;101556.81;;;18.98;60.85
59190;BME280;50749;51.636;4.948;2022-10-16T10:20:28;101565.47;;;18.97;61.31
59190;BME280;50749;51.636;4.948;2022-10-16T10:22:56;101564.63;;;18.96;61.14
59190;BME280;50749;51.636;4.948;2022-10-16T10:25:39;101567.06;;;18.98;61.08
59190;BME280;50749;51.636;4.948;2022-10-16T10:31:34;101565.91;;;18.99;61.05
59190;BME280;50749;51.636;4.948;2022-10-16T10:39:55;101576.53;;;18.97;61.71
59190;BME280;50749;51.636;4.948;2022-10-16T10:42:34;101579.75;;;18.99;61.42
59190;BME280;50749;51.636;4.948;2022-10-16T10:50:43;101578.97;;;18.98;61.59
59190;BME280;50749;51.636;4.948;2022-10-16T10:56:07;101577.78;;;18.99;61.54
59190;BME280;50749;51.636;4.948;2022-10-16T11:06:42;101591.66;;;18.99;61.71
59190;BME280;50749;51.636;4.948;2022-10-16T11:09:31;101601.94;;;18.99;61.86
59190;BME280;50749;51.636;4.948;2022-10-16T11:12:04;101596.38;;;18.99;61.77
59190;BME280;50749;51.636;4.948;2022-10-16T11:15:07;101603.56;;;19.00;61.92
59190;BME280;50749;51.636;4.948;2022-10-16T11:17:55;101593.28;;;19.00;62.03
59190;BME280;50749;51.636;4.948;2022-10-16T11:20:26;101587.72;;;19.00;61.43
59190;BME280;50749;51.636;4.948;2022-10-16T11:22:56;101589.22;;;18.98;62.01
59190;BME280;50749;51.636;4.948;2022-10-16T11:25:30;101601.59;;;19.00;61.25
59190;BME280;50749;51.636;4.948;2022-10-16T11:27:57;101607.94;;;19.01;61.70
59190;BME280;50749;51.636;4.948;2022-10-16T11:30:43;101602.28;;;18.97;61.63
59190;BME280;50749;51.636;4.948;2022-10-16T11:33:22;101606.34;;;19.00;61.39
59190;BME280;50749;51.636;4.948;2022-10-16T11:36:00;101598.81;;;19.00;61.80
59190;BME280;50749;51.636;4.948;2022-10-16T11:38:30;101604.69;;;18.99;61.65
59190;BME280;50749;51.636;4.948;2022-10-16T11:41:08;101613.03;;;18.99;61.88
59190;BME280;50749;51.636;4.948;2022-10-16T11:43:39;101619.69;;;18.98;61.78
59190;BME280;50749;51.636;4.948;2022-10-16T11:46:18;101616.59;;;18.99;61.85
59190;BME280;50749;51.636;4.948;2022-10-16T11:51:42;101616.59;;;18.99;62.01
59190;BME280;50749;51.636;4.948;2022-10-16T11:54:24;101618.91;;;18.97;62.40
59190;BME280;50749;51.636;4.948;2022-10-16T11:56:57;101615.34;;;18.97;62.05
59190;BME280;50749;51.636;4.948;2022-10-16T11:59:32;101620.88;;;18.97;61.78
59190;BME280;50749;51.636;4.948;2022-10-16T12:04:55;101632.75;;;18.97;61.65
59190;BME280;50749;51.636;4.948;2022-10-16T12:07:32;101627.22;;;18.97;61.71
59190;BME280;50749;51.636;4.948;2022-10-16T12:10:24;101634.38;;;18.98;61.65
59190;BME280;50749;51.636;4.948;2022-10-16T12:12:50;101633.56;;;18.98;61.11
59190;BME280;50749;51.636;4.948;2022-10-16T12:15:31;101631.63;;;18.98;61.29
59190;BME280;50749;51.636;4.948;2022-10-16T12:17:58;101625.25;;;18.98;61.46
59190;BME280;50749;51.636;4.948;2022-10-16T12:20:33;101625.25;;;18.98;61.91
59190;BME280;50749;51.636;4.948;2022-10-16T12:23:04;101627.22;;;18.97;61.80
59190;BME280;50749;51.636;4.948;2022-10-16T12:25:35;101636.66;;;18.96;61.92
59190;BME280;50749;51.636;4.948;2022-10-16T12:30:34;101638.63;;;18.96;61.50
59190;BME280;50749;51.636;4.948;2022-10-16T12:33:30;101631.97;;;18.97;61.94
59190;BME280;50749;51.636;4.948;2022-10-16T12:35:59;101628.34;;;18.96;61.80
59190;BME280;50749;51.636;4.948;2022-10-16T12:38:27;101631.97;;;18.97;61.38
59190;BME280;50749;51.636;4.948;2022-10-16T12:41:02;101631.97;;;18.97;61.56
59190;BME280;50749;51.636;4.948;2022-10-16T12:43:38;101624.78;;;18.96;61.50
59190;BME280;50749;51.636;4.948;2022-10-16T12:48:34;101628.69;;;18.94;61.50
59190;BME280;50749;51.636;4.948;2022-10-16T12:54:03;101622.00;;;18.96;61.05
59190;BME280;50749;51.636;4.948;2022-10-16T12:56:41;101619.25;;;18.96;61.42
59190;BME280;50749;51.636;4.948;2022-10-16T12:59:28;101619.25;;;18.96;61.58
59190;BME280;50749;51.636;4.948;2022-10-16T13:02:19;101616.47;;;18.96;61.20
59190;BME280;50749;51.636;4.948;2022-10-16T13:07:49;101624.78;;;18.96;61.05
59190;BME280;50749;51.636;4.948;2022-10-16T13:10:45;101629.88;;;18.93;61.08
59190;BME280;50749;51.636;4.948;2022-10-16T13:16:11;101636.56;;;18.92;61.31
59190;BME280;50749;51.636;4.948;2022-10-16T13:24:06;101639.31;;;18.92;61.45
59190;BME280;50749;51.636;4.948;2022-10-16T13:26:41;101649.28;;;18.93;61.51
59190;BME280;50749;51.636;4.948;2022-10-16T13:29:08;101646.50;;;18.93;61.46
59190;BME280;50749;51.636;4.948;2022-10-16T13:31:38;101645.31;;;18.94;61.23
59190;BME280;50749;51.636;4.948;2022-10-16T13:34:05;101650.06;;;18.94;61.23
59190;BME280;50749;51.636;4.948;2022-10-16T13:36:43;101645.31;;;18.94;61.02
59190;BME280;50749;51.636;4.948;2022-10-16T13:39:13;101648.09;;;18.94;61.69
59190;BME280;50749;51.636;4.948;2022-10-16T13:41:40;101646.50;;;18.93;61.33
59190;BME280;50749;51.636;4.948;2022-10-16T13:44:15;101643.72;;;18.93;61.25
59190;BME280;50749;51.636;4.948;2022-10-16T13:46:43;101649.28;;;18.93;61.42
59190;BME280;50749;51.636;4.948;2022-10-16T13:49:14;101647.63;;;18.92;61.34
59190;BME280;50749;51.636;4.948;2022-10-16T13:51:41;101636.22;;;18.94;61.45
59190;BME280;50749;51.636;4.948;2022-10-16T13:54:09;101637.38;;;18.93;61.12
59190;BME280;50749;51.636;4.948;2022-10-16T13:56:38;101645.69;;;18.93;61.40
59190;BME280;50749;51.636;4.948;2022-10-16T13:59:06;101639.31;;;18.92;61.50
59190;BME280;50749;51.636;4.948;2022-10-16T14:01:41;101633.78;;;18.92;61.46
59190;BME280;50749;51.636;4.948;2022-10-16T14:04:09;101636.56;;;18.92;61.24
59190;BME280;50749;51.636;4.948;2022-10-16T14:06:41;101642.94;;;18.93;61.24
59190;BME280;50749;51.636;4.948;2022-10-16T14:09:11;101642.09;;;18.92;60.89
59190;BME280;50749;51.636;4.948;2022-10-16T14:11:52;101632.19;;;18.91;61.26
59190;BME280;50749;51.636;4.948;2022-10-16T14:14:19;101634.13;;;18.91;61.32
59190;BME280;50749;51.636;4.948;2022-10-16T14:16:45;101632.19;;;18.91;60.92
59190;BME280;50749;51.636;4.948;2022-10-16T14:19:24;101636.09;;;18.90;60.61
59190;BME280;50749;51.636;4.948;2022-10-16T14:21:51;101638.88;;;18.90;60.82
59190;BME280;50749;51.636;4.948;2022-10-16T14:26:57;101638.88;;;18.90;61.14
59190;BME280;50749;51.636;4.948;2022-10-16T14:29:25;101638.88;;;18.90;60.54
59190;BME280;50749;51.636;4.948;2022-10-16T14:32:05;101638.06;;;18.90;60.92
59190;BME280;50749;51.636;4.948;2022-10-16T14:34:34;101631.69;;;18.89;60.89
59190;BME280;50749;51.636;4.948;2022-10-16T14:37:08;101629.31;;;18.88;61.09
59190;BME280;50749;51.636;4.948;2022-10-16T14:39:35;101639.22;;;18.89;61.19